PWSweather.com
Personal Weather Stations
Station Observations

YeovilGB

Lat: 50.949, Lon: -2.627

Elevation: 70

Station Type: Vantage Pro

http://www.yeovil-weather.me.uk/

High Low Average
Temperature 42.2°F5.7°C 38.8°F3.8°C 40.2°F4.6°C
Dew Point 40.0°F4.4°C 35.6°F2.0°C 37.4°F3.0°C
Winds 13.8 mph 22.2 kmh Calm Calm 3.0 mph SW4.8 kmh SW
Wind Gusts 24.2 mph38.9 kmh -- 7.0 mph11.3 kmh
Humidity 95% 82% 90%
Pressure 29.45 in997.3 mb 29.21 in989.2 mb -
Precipitation 0.15 in3.8 mm - -
Hour Temp Dew Point Humidity Winds Wind Gusts Pressure Precip Precip Rate Daily Precip Total
12:00 AM 41.0°F5.0°C 36.8°F2.7°C 85% 5.8 mph SW9.3 kmh SW 10.4 mph16.7 kmh 29.44 in997.0 mb - 0.01 in0.3 mm 0.01 in0.3 mm
12:10 AM 40.8°F4.9°C 36.9°F2.7°C 86% 6.9 mph SW11.1 kmh SW 12.7 mph20.4 kmh 29.44 in997.0 mb - 0.00 in0.0 mm 0.01 in0.3 mm
12:20 AM 41.1°F5.1°C 37.2°F2.9°C 86% 5.8 mph SW9.3 kmh SW 16.1 mph25.9 kmh 29.44 in997.0 mb - 0.00 in0.0 mm 0.01 in0.3 mm
12:30 AM 41.4°F5.2°C 37.2°F2.9°C 85% 10.4 mph SW16.7 kmh SW 24.2 mph38.9 kmh 29.44 in997.0 mb - 0.00 in0.0 mm 0.01 in0.3 mm
12:40 AM 41.5°F5.3°C 37.0°F2.8°C 84% 6.9 mph SW11.1 kmh SW 11.5 mph18.5 kmh 29.43 in996.6 mb - 0.00 in0.0 mm 0.01 in0.3 mm
12:50 AM 41.6°F5.3°C 36.5°F2.5°C 82% 5.8 mph WSW9.3 kmh WSW 9.2 mph14.8 kmh 29.44 in997.0 mb - 0.00 in0.0 mm 0.01 in0.3 mm
01:00 AM 41.7°F5.4°C 36.6°F2.6°C 82% 6.9 mph SW11.1 kmh SW 11.5 mph18.5 kmh 29.44 in997.0 mb - 0.00 in0.0 mm 0.01 in0.3 mm
01:10 AM 41.9°F5.5°C 36.8°F2.7°C 82% 4.6 mph SW7.4 kmh SW 11.5 mph18.5 kmh 29.45 in997.3 mb - 0.00 in0.0 mm 0.01 in0.3 mm
01:20 AM 41.8°F5.4°C 37.0°F2.8°C 83% 8.1 mph SW13.0 kmh SW 9.2 mph14.8 kmh 29.44 in997.0 mb - 0.00 in0.0 mm 0.01 in0.3 mm
01:30 AM 41.4°F5.2°C 36.9°F2.7°C 84% 4.6 mph SW7.4 kmh SW 10.4 mph16.7 kmh 29.44 in997.0 mb - 0.00 in0.0 mm 0.01 in0.3 mm
01:40 AM 41.2°F5.1°C 37.0°F2.8°C 85% 4.6 mph SW7.4 kmh SW 10.4 mph16.7 kmh 29.44 in997.0 mb - 0.00 in0.0 mm 0.01 in0.3 mm
01:50 AM 40.8°F4.9°C 37.0°F2.8°C 86% 4.6 mph WSW7.4 kmh WSW 6.9 mph11.1 kmh 29.44 in997.0 mb - 0.00 in0.0 mm 0.01 in0.3 mm
02:00 AM 40.9°F4.9°C 37.0°F2.8°C 86% 4.6 mph SW7.4 kmh SW 11.5 mph18.5 kmh 29.44 in997.0 mb - 0.00 in0.0 mm 0.01 in0.3 mm
02:10 AM 41.1°F5.1°C 37.5°F3.1°C 87% 5.8 mph SW9.3 kmh SW 11.5 mph18.5 kmh 29.44 in997.0 mb - 0.00 in0.0 mm 0.01 in0.3 mm
02:20 AM 40.9°F4.9°C 37.4°F3.0°C 87% 6.9 mph SW11.1 kmh SW 15.0 mph24.1 kmh 29.44 in997.0 mb - 0.00 in0.0 mm 0.01 in0.3 mm
02:30 AM 40.8°F4.9°C 37.2°F2.9°C 87% 3.5 mph SW5.6 kmh SW 8.1 mph13.0 kmh 29.44 in997.0 mb - 0.00 in0.0 mm 0.01 in0.3 mm
02:40 AM 40.6°F4.8°C 37.3°F2.9°C 88% 6.9 mph SW11.1 kmh SW 8.1 mph13.0 kmh 29.44 in997.0 mb - 0.00 in0.0 mm 0.01 in0.3 mm
02:50 AM 40.4°F4.7°C 37.4°F3.0°C 89% 3.5 mph SW5.6 kmh SW 6.9 mph11.1 kmh 29.44 in997.0 mb - 0.00 in0.0 mm 0.01 in0.3 mm
03:00 AM 40.3°F4.6°C 37.3°F2.9°C 89% 13.8 mph SW22.2 kmh SW 19.6 mph31.5 kmh 29.44 in997.0 mb - 0.01 in0.3 mm 0.01 in0.3 mm
03:10 AM 40.3°F4.6°C 37.3°F2.9°C 89% 5.8 mph SW9.3 kmh SW 11.5 mph18.5 kmh 29.44 in997.0 mb - 0.01 in0.3 mm 0.02 in0.5 mm
03:20 AM 40.1°F4.5°C 37.1°F2.8°C 89% 4.6 mph SW7.4 kmh SW 8.1 mph13.0 kmh 29.43 in996.6 mb - 0.00 in0.0 mm 0.02 in0.5 mm
03:30 AM 39.8°F4.3°C 36.8°F2.7°C 89% 2.3 mph SW3.7 kmh SW 2.3 mph3.7 kmh 29.43 in996.6 mb - 0.00 in0.0 mm 0.02 in0.5 mm
03:40 AM 39.6°F4.2°C 36.6°F2.6°C 89% 3.5 mph SW5.6 kmh SW 8.1 mph13.0 kmh 29.42 in996.3 mb - 0.00 in0.0 mm 0.02 in0.5 mm
03:50 AM 39.5°F4.2°C 36.8°F2.7°C 90% 3.5 mph SSW5.6 kmh SSW 5.8 mph9.3 kmh 29.42 in996.3 mb - 0.00 in0.0 mm 0.02 in0.5 mm
04:00 AM 39.5°F4.2°C 36.8°F2.7°C 90% Calm Calm -- 29.42 in996.3 mb - 0.00 in0.0 mm 0.02 in0.5 mm
04:10 AM 39.3°F4.1°C 36.6°F2.6°C 90% 1.2 mph SSW1.9 kmh SSW 2.3 mph3.7 kmh 29.41 in995.9 mb - 0.00 in0.0 mm 0.02 in0.5 mm
04:20 AM 39.2°F4.0°C 36.5°F2.5°C 90% 1.2 mph SW1.9 kmh SW 8.1 mph13.0 kmh 29.42 in996.3 mb - 0.00 in0.0 mm 0.02 in0.5 mm
04:30 AM 39.4°F4.1°C 37.0°F2.8°C 91% 3.5 mph SW5.6 kmh SW 10.4 mph16.7 kmh 29.41 in995.9 mb - 0.00 in0.0 mm 0.02 in0.5 mm
04:40 AM 39.7°F4.3°C 37.3°F2.9°C 91% 3.5 mph SW5.6 kmh SW 9.2 mph14.8 kmh 29.41 in995.9 mb - 0.00 in0.0 mm 0.02 in0.5 mm
04:50 AM 39.7°F4.3°C 37.0°F2.8°C 90% 2.3 mph SSW3.7 kmh SSW 5.8 mph9.3 kmh 29.41 in995.9 mb - 0.00 in0.0 mm 0.02 in0.5 mm
05:00 AM 39.5°F4.2°C 36.8°F2.7°C 90% 5.8 mph SW9.3 kmh SW 6.9 mph11.1 kmh 29.40 in995.6 mb - 0.00 in0.0 mm 0.02 in0.5 mm
05:10 AM 39.3°F4.1°C 36.6°F2.6°C 90% 5.8 mph SSW9.3 kmh SSW 11.5 mph18.5 kmh 29.40 in995.6 mb - 0.00 in0.0 mm 0.02 in0.5 mm
05:20 AM 39.2°F4.0°C 36.5°F2.5°C 90% 4.6 mph SW7.4 kmh SW 10.4 mph16.7 kmh 29.40 in995.6 mb - 0.00 in0.0 mm 0.02 in0.5 mm
05:30 AM 39.0°F3.9°C 36.3°F2.4°C 90% Calm Calm -- 29.39 in995.3 mb - 0.00 in0.0 mm 0.02 in0.5 mm
05:40 AM 38.8°F3.8°C 36.1°F2.3°C 90% 3.5 mph SSW5.6 kmh SSW 8.1 mph13.0 kmh 29.39 in995.3 mb - 0.00 in0.0 mm 0.02 in0.5 mm
05:50 AM 38.9°F3.8°C 36.5°F2.5°C 91% 5.8 mph SW9.3 kmh SW 9.2 mph14.8 kmh 29.39 in995.3 mb - 0.00 in0.0 mm 0.02 in0.5 mm
06:00 AM 39.5°F4.2°C 37.1°F2.8°C 91% 5.8 mph SW9.3 kmh SW 9.2 mph14.8 kmh 29.40 in995.6 mb - 0.00 in0.0 mm 0.02 in0.5 mm
06:10 AM 39.8°F4.3°C 36.8°F2.7°C 89% 3.5 mph SW5.6 kmh SW 8.1 mph13.0 kmh 29.39 in995.3 mb - 0.01 in0.3 mm 0.02 in0.5 mm
06:20 AM 39.8°F4.3°C 36.8°F2.7°C 89% 2.3 mph SW3.7 kmh SW 4.6 mph7.4 kmh 29.39 in995.3 mb - 0.00 in0.0 mm 0.02 in0.5 mm
06:30 AM 39.7°F4.3°C 36.7°F2.6°C 89% 1.2 mph SW1.9 kmh SW 5.8 mph9.3 kmh 29.39 in995.3 mb - 0.00 in0.0 mm 0.02 in0.5 mm
06:40 AM 39.3°F4.1°C 36.3°F2.4°C 89% 2.3 mph SW3.7 kmh SW 8.1 mph13.0 kmh 29.39 in995.3 mb - 0.00 in0.0 mm 0.02 in0.5 mm
06:50 AM 39.3°F4.1°C 36.6°F2.6°C 90% 4.6 mph SW7.4 kmh SW 10.4 mph16.7 kmh 29.39 in995.3 mb - 0.00 in0.0 mm 0.02 in0.5 mm
07:00 AM 39.6°F4.2°C 36.9°F2.7°C 90% 9.2 mph SW14.8 kmh SW 20.7 mph33.3 kmh 29.39 in995.3 mb - 0.00 in0.0 mm 0.02 in0.5 mm
07:10 AM 39.9°F4.4°C 36.1°F2.3°C 86% 5.8 mph SW9.3 kmh SW 11.5 mph18.5 kmh 29.38 in994.9 mb - 0.00 in0.0 mm 0.02 in0.5 mm
07:20 AM 39.7°F4.3°C 35.9°F2.2°C 86% 3.5 mph SW5.6 kmh SW 8.1 mph13.0 kmh 29.38 in994.9 mb - 0.00 in0.0 mm 0.02 in0.5 mm
07:30 AM 39.5°F4.2°C 35.6°F2.0°C 86% 3.5 mph SW5.6 kmh SW 9.2 mph14.8 kmh 29.38 in994.9 mb - 0.00 in0.0 mm 0.02 in0.5 mm
07:40 AM 39.3°F4.1°C 35.8°F2.1°C 87% 1.2 mph SSW1.9 kmh SSW 3.5 mph5.6 kmh 29.38 in994.9 mb - 0.00 in0.0 mm 0.02 in0.5 mm
07:50 AM 39.1°F3.9°C 35.8°F2.1°C 88% 3.5 mph SW5.6 kmh SW 8.1 mph13.0 kmh 29.38 in994.9 mb - 0.00 in0.0 mm 0.02 in0.5 mm
08:00 AM 39.1°F3.9°C 36.1°F2.3°C 89% 5.8 mph SW9.3 kmh SW 11.5 mph18.5 kmh 29.39 in995.3 mb - 0.00 in0.0 mm 0.02 in0.5 mm
08:10 AM 39.5°F4.2°C 36.5°F2.5°C 89% 5.8 mph SW9.3 kmh SW 11.5 mph18.5 kmh 29.38 in994.9 mb - 0.00 in0.0 mm 0.02 in0.5 mm
08:20 AM 39.9°F4.4°C 36.6°F2.6°C 88% 4.6 mph SW7.4 kmh SW 9.2 mph14.8 kmh 29.39 in995.3 mb - 0.00 in0.0 mm 0.02 in0.5 mm
08:30 AM 40.0°F4.4°C 37.0°F2.8°C 89% 6.9 mph SW11.1 kmh SW 8.1 mph13.0 kmh 29.39 in995.3 mb - 0.01 in0.3 mm 0.03 in0.8 mm
08:40 AM 39.8°F4.3°C 36.8°F2.7°C 89% 4.6 mph SSW7.4 kmh SSW 6.9 mph11.1 kmh 29.38 in994.9 mb - 0.01 in0.3 mm 0.04 in1.0 mm
08:50 AM 39.6°F4.2°C 36.9°F2.7°C 90% 4.6 mph SW7.4 kmh SW 6.9 mph11.1 kmh 29.39 in995.3 mb - 0.00 in0.0 mm 0.04 in1.0 mm
09:00 AM 39.5°F4.2°C 36.8°F2.7°C 90% Calm Calm -- 29.38 in994.9 mb - 0.00 in0.0 mm 0.04 in1.0 mm
09:10 AM 39.4°F4.1°C 37.0°F2.8°C 91% 2.3 mph SSW3.7 kmh SSW 4.6 mph7.4 kmh 29.37 in994.6 mb - 0.00 in0.0 mm 0.04 in1.0 mm
09:20 AM 39.4°F4.1°C 37.0°F2.8°C 91% 1.2 mph SSW1.9 kmh SSW -- 29.37 in994.6 mb - 0.00 in0.0 mm 0.04 in1.0 mm
09:30 AM 39.4°F4.1°C 37.0°F2.8°C 91% 2.3 mph SW3.7 kmh SW 5.8 mph9.3 kmh 29.37 in994.6 mb - 0.00 in0.0 mm 0.04 in1.0 mm
09:40 AM 39.3°F4.1°C 36.9°F2.7°C 91% 1.2 mph S1.9 kmh S 5.8 mph9.3 kmh 29.37 in994.6 mb - 0.00 in0.0 mm 0.04 in1.0 mm
09:50 AM 39.2°F4.0°C 37.1°F2.8°C 92% Calm Calm -- 29.37 in994.6 mb - 0.00 in0.0 mm 0.04 in1.0 mm
10:00 AM 39.3°F4.1°C 37.2°F2.9°C 92% 1.2 mph SW1.9 kmh SW -- 29.36 in994.2 mb - 0.00 in0.0 mm 0.04 in1.0 mm
10:10 AM 39.4°F4.1°C 37.3°F2.9°C 92% 6.9 mph SW11.1 kmh SW 11.5 mph18.5 kmh 29.36 in994.2 mb - 0.00 in0.0 mm 0.04 in1.0 mm
10:20 AM 39.8°F4.3°C 37.4°F3.0°C 91% 8.1 mph SW13.0 kmh SW 11.5 mph18.5 kmh 29.36 in994.2 mb - 0.00 in0.0 mm 0.04 in1.0 mm
10:30 AM 40.0°F4.4°C 37.3°F2.9°C 90% 2.3 mph SW3.7 kmh SW 10.4 mph16.7 kmh 29.36 in994.2 mb - 0.00 in0.0 mm 0.04 in1.0 mm
10:40 AM 40.1°F4.5°C 37.4°F3.0°C 90% 1.2 mph SW1.9 kmh SW 6.9 mph11.1 kmh 29.36 in994.2 mb - 0.00 in0.0 mm 0.04 in1.0 mm
10:50 AM 40.0°F4.4°C 37.0°F2.8°C 89% 2.3 mph SW3.7 kmh SW 6.9 mph11.1 kmh 29.36 in994.2 mb - 0.01 in0.3 mm 0.05 in1.3 mm
11:00 AM 40.0°F4.4°C 37.3°F2.9°C 90% Calm Calm 1.2 mph1.9 kmh 29.35 in993.9 mb - 0.00 in0.0 mm 0.05 in1.3 mm
11:10 AM 40.0°F4.4°C 37.6°F3.1°C 91% Calm Calm -- 29.34 in993.6 mb - 0.01 in0.3 mm 0.06 in1.5 mm
11:20 AM 40.6°F4.8°C 38.7°F3.7°C 93% Calm Calm -- 29.33 in993.2 mb - 0.00 in0.0 mm 0.06 in1.5 mm
11:30 AM 41.9°F5.5°C 40.0°F4.4°C 93% 2.3 mph SW3.7 kmh SW 3.5 mph5.6 kmh 29.33 in993.2 mb - 0.00 in0.0 mm 0.06 in1.5 mm
11:40 AM 41.7°F5.4°C 39.0°F3.9°C 90% 5.8 mph SSW9.3 kmh SSW 11.5 mph18.5 kmh 29.32 in992.9 mb - 0.00 in0.0 mm 0.06 in1.5 mm
11:50 AM 41.4°F5.2°C 38.7°F3.7°C 90% 8.1 mph SW13.0 kmh SW 10.4 mph16.7 kmh 29.32 in992.9 mb - 0.00 in0.0 mm 0.06 in1.5 mm
12:00 PM 41.3°F5.2°C 38.0°F3.3°C 88% 5.8 mph SW9.3 kmh SW 11.5 mph18.5 kmh 29.32 in992.9 mb - 0.00 in0.0 mm 0.06 in1.5 mm
12:10 PM 41.2°F5.1°C 37.3°F2.9°C 86% 6.9 mph SW11.1 kmh SW 10.4 mph16.7 kmh 29.32 in992.9 mb - 0.00 in0.0 mm 0.06 in1.5 mm
12:20 PM 41.0°F5.0°C 37.1°F2.8°C 86% 5.8 mph SW9.3 kmh SW 11.5 mph18.5 kmh 29.31 in992.6 mb - 0.00 in0.0 mm 0.06 in1.5 mm
12:30 PM 40.7°F4.8°C 37.1°F2.8°C 87% 2.3 mph SSW3.7 kmh SSW 5.8 mph9.3 kmh 29.31 in992.6 mb - 0.00 in0.0 mm 0.06 in1.5 mm
12:40 PM 40.7°F4.8°C 37.4°F3.0°C 88% 5.8 mph SW9.3 kmh SW 10.4 mph16.7 kmh 29.31 in992.6 mb - 0.00 in0.0 mm 0.06 in1.5 mm
12:50 PM 40.4°F4.7°C 37.4°F3.0°C 89% 8.1 mph SW13.0 kmh SW 13.8 mph22.2 kmh 29.30 in992.2 mb - 0.00 in0.0 mm 0.06 in1.5 mm
01:00 PM 40.3°F4.6°C 37.3°F2.9°C 89% 5.8 mph SW9.3 kmh SW 11.5 mph18.5 kmh 29.30 in992.2 mb - 0.00 in0.0 mm 0.06 in1.5 mm
01:10 PM 40.2°F4.6°C 37.2°F2.9°C 89% Calm Calm 6.9 mph11.1 kmh 29.30 in992.2 mb - 0.00 in0.0 mm 0.06 in1.5 mm
01:20 PM 40.0°F4.4°C 37.3°F2.9°C 90% 2.3 mph SW3.7 kmh SW 4.6 mph7.4 kmh 29.30 in992.2 mb - 0.00 in0.0 mm 0.06 in1.5 mm
01:30 PM 39.9°F4.4°C 37.2°F2.9°C 90% Calm Calm -- 29.29 in991.9 mb - 0.00 in0.0 mm 0.06 in1.5 mm
01:40 PM 40.0°F4.4°C 37.6°F3.1°C 91% Calm Calm -- 29.28 in991.5 mb - 0.00 in0.0 mm 0.06 in1.5 mm
01:50 PM 40.2°F4.6°C 37.8°F3.2°C 91% 5.8 mph SW9.3 kmh SW 9.2 mph14.8 kmh 29.28 in991.5 mb - 0.00 in0.0 mm 0.06 in1.5 mm
02:00 PM 40.7°F4.8°C 38.3°F3.5°C 91% 4.6 mph SW7.4 kmh SW 8.1 mph13.0 kmh 29.28 in991.5 mb - 0.00 in0.0 mm 0.06 in1.5 mm
02:10 PM 41.4°F5.2°C 38.9°F3.8°C 91% Calm Calm -- 29.27 in991.2 mb - 0.00 in0.0 mm 0.06 in1.5 mm
02:20 PM 41.9°F5.5°C 38.9°F3.8°C 89% Calm Calm -- 29.26 in990.9 mb - 0.02 in0.5 mm 0.08 in2.0 mm
02:30 PM 42.0°F5.6°C 38.7°F3.7°C 88% 3.5 mph S5.6 kmh S 6.9 mph11.1 kmh 29.26 in990.9 mb - 0.02 in0.5 mm 0.09 in2.3 mm
02:40 PM 42.2°F5.7°C 38.9°F3.8°C 88% 1.2 mph SW1.9 kmh SW 5.8 mph9.3 kmh 29.26 in990.9 mb - 0.00 in0.0 mm 0.09 in2.3 mm
02:50 PM 42.0°F5.6°C 38.4°F3.6°C 87% 2.3 mph SW3.7 kmh SW 4.6 mph7.4 kmh 29.25 in990.5 mb - 0.00 in0.0 mm 0.09 in2.3 mm
03:00 PM 41.6°F5.3°C 38.0°F3.3°C 87% Calm Calm -- 29.25 in990.5 mb - 0.00 in0.0 mm 0.09 in2.3 mm
03:10 PM 41.2°F5.1°C 37.6°F3.1°C 87% Calm Calm -- 29.25 in990.5 mb - 0.00 in0.0 mm 0.09 in2.3 mm
03:20 PM 40.9°F4.9°C 37.3°F2.9°C 87% Calm Calm -- 29.25 in990.5 mb - 0.00 in0.0 mm 0.09 in2.3 mm
03:30 PM 40.6°F4.8°C 37.3°F2.9°C 88% 2.3 mph SSW3.7 kmh SSW 5.8 mph9.3 kmh 29.24 in990.2 mb - 0.00 in0.0 mm 0.09 in2.3 mm
03:40 PM 40.4°F4.7°C 37.1°F2.8°C 88% Calm Calm -- 29.24 in990.2 mb - 0.00 in0.0 mm 0.09 in2.3 mm
03:50 PM 40.1°F4.5°C 36.9°F2.7°C 88% Calm Calm 1.2 mph1.9 kmh 29.24 in990.2 mb - 0.00 in0.0 mm 0.09 in2.3 mm
04:00 PM 39.9°F4.4°C 37.0°F2.8°C 89% 1.2 mph SW1.9 kmh SW -- 29.23 in989.8 mb - 0.00 in0.0 mm 0.09 in2.3 mm
04:10 PM 39.8°F4.3°C 36.8°F2.7°C 89% 2.3 mph SW3.7 kmh SW 8.1 mph13.0 kmh 29.23 in989.8 mb - 0.00 in0.0 mm 0.09 in2.3 mm
04:20 PM 39.8°F4.3°C 36.8°F2.7°C 89% Calm Calm 1.2 mph1.9 kmh 29.23 in989.8 mb - 0.00 in0.0 mm 0.09 in2.3 mm
04:30 PM 39.5°F4.2°C 36.6°F2.6°C 89% 1.2 mph SW1.9 kmh SW 3.5 mph5.6 kmh 29.22 in989.5 mb - 0.00 in0.0 mm 0.09 in2.3 mm
04:40 PM 39.3°F4.1°C 36.6°F2.6°C 90% 2.3 mph SW3.7 kmh SW 6.9 mph11.1 kmh 29.22 in989.5 mb - 0.00 in0.0 mm 0.09 in2.3 mm
04:50 PM 39.3°F4.1°C 36.7°F2.6°C 90% 1.2 mph SW1.9 kmh SW 4.6 mph7.4 kmh 29.22 in989.5 mb - 0.00 in0.0 mm 0.09 in2.3 mm
05:00 PM 39.4°F4.1°C 36.7°F2.6°C 90% 2.3 mph SSW3.7 kmh SSW 6.9 mph11.1 kmh 29.22 in989.5 mb - 0.00 in0.0 mm 0.09 in2.3 mm
05:10 PM 39.6°F4.2°C 37.2°F2.9°C 91% Calm Calm -- 29.22 in989.5 mb - 0.00 in0.0 mm 0.09 in2.3 mm
05:20 PM 39.7°F4.3°C 37.3°F2.9°C 91% 1.2 mph SW1.9 kmh SW -- 29.22 in989.5 mb - 0.00 in0.0 mm 0.09 in2.3 mm
05:30 PM 39.8°F4.3°C 37.1°F2.8°C 90% 1.2 mph SW1.9 kmh SW 4.6 mph7.4 kmh 29.23 in989.8 mb - 0.01 in0.3 mm 0.10 in2.5 mm
05:40 PM 40.0°F4.4°C 37.6°F3.1°C 91% 3.5 mph SW5.6 kmh SW 11.5 mph18.5 kmh 29.22 in989.5 mb - 0.02 in0.5 mm 0.12 in3.0 mm
05:50 PM 40.0°F4.4°C 37.6°F3.1°C 91% 4.6 mph SW7.4 kmh SW 6.9 mph11.1 kmh 29.22 in989.5 mb - 0.01 in0.3 mm 0.13 in3.3 mm
06:00 PM 39.8°F4.3°C 37.4°F3.0°C 91% 2.3 mph SW3.7 kmh SW 4.6 mph7.4 kmh 29.21 in989.2 mb - 0.00 in0.0 mm 0.13 in3.3 mm
06:10 PM 39.5°F4.2°C 37.1°F2.8°C 91% 3.5 mph SSW5.6 kmh SSW 9.2 mph14.8 kmh 29.21 in989.2 mb - 0.00 in0.0 mm 0.13 in3.3 mm
06:20 PM 39.3°F4.1°C 37.2°F2.9°C 92% 1.2 mph SW1.9 kmh SW 2.3 mph3.7 kmh 29.21 in989.2 mb - 0.00 in0.0 mm 0.13 in3.3 mm
06:30 PM 39.2°F4.0°C 37.1°F2.8°C 92% Calm Calm -- 29.22 in989.5 mb - 0.00 in0.0 mm 0.13 in3.3 mm
06:40 PM 39.3°F4.1°C 37.4°F3.0°C 93% 1.2 mph SW1.9 kmh SW 5.8 mph9.3 kmh 29.21 in989.2 mb - 0.00 in0.0 mm 0.13 in3.3 mm
06:50 PM 39.5°F4.2°C 37.6°F3.1°C 93% 3.5 mph SW5.6 kmh SW 5.8 mph9.3 kmh 29.21 in989.2 mb - 0.01 in0.3 mm 0.13 in3.3 mm
07:00 PM 39.7°F4.3°C 38.1°F3.4°C 94% Calm Calm -- 29.21 in989.2 mb - 0.00 in0.0 mm 0.13 in3.3 mm
07:10 PM 39.8°F4.3°C 38.2°F3.4°C 94% 1.2 mph SSW1.9 kmh SSW 1.2 mph1.9 kmh 29.21 in989.2 mb - 0.01 in0.3 mm 0.14 in3.6 mm
07:20 PM 39.9°F4.4°C 38.3°F3.5°C 94% Calm Calm -- 29.22 in989.5 mb - 0.00 in0.0 mm 0.14 in3.6 mm
07:30 PM 39.9°F4.4°C 38.3°F3.5°C 94% 1.2 mph SW1.9 kmh SW 8.1 mph13.0 kmh 29.22 in989.5 mb - 0.00 in0.0 mm 0.14 in3.6 mm
07:40 PM 40.0°F4.4°C 38.4°F3.6°C 94% 5.8 mph SW9.3 kmh SW 12.7 mph20.4 kmh 29.23 in989.8 mb - 0.00 in0.0 mm 0.14 in3.6 mm
07:50 PM 40.1°F4.5°C 38.5°F3.6°C 94% Calm Calm -- 29.23 in989.8 mb - 0.00 in0.0 mm 0.14 in3.6 mm
08:00 PM 40.1°F4.5°C 38.5°F3.6°C 94% 2.3 mph SW3.7 kmh SW 4.6 mph7.4 kmh 29.24 in990.2 mb - 0.00 in0.0 mm 0.14 in3.6 mm
08:10 PM 40.2°F4.6°C 38.6°F3.7°C 94% Calm Calm -- 29.24 in990.2 mb - 0.00 in0.0 mm 0.14 in3.6 mm
08:20 PM 40.2°F4.6°C 38.6°F3.7°C 94% 4.6 mph SW7.4 kmh SW 5.8 mph9.3 kmh 29.24 in990.2 mb - 0.00 in0.0 mm 0.14 in3.6 mm
08:30 PM 40.1°F4.5°C 38.5°F3.6°C 94% Calm Calm 2.3 mph3.7 kmh 29.25 in990.5 mb - 0.00 in0.0 mm 0.14 in3.6 mm
08:40 PM 40.0°F4.4°C 38.4°F3.6°C 94% Calm Calm 2.3 mph3.7 kmh 29.25 in990.5 mb - 0.00 in0.0 mm 0.14 in3.6 mm
08:50 PM 40.1°F4.5°C 38.8°F3.8°C 95% Calm Calm 1.2 mph1.9 kmh 29.26 in990.9 mb - 0.01 in0.3 mm 0.15 in3.8 mm
09:00 PM 40.2°F4.6°C 38.9°F3.8°C 95% Calm Calm 2.3 mph3.7 kmh 29.27 in991.2 mb - 0.00 in0.0 mm 0.15 in3.8 mm
09:10 PM 40.4°F4.7°C 39.1°F3.9°C 95% 2.3 mph WNW3.7 kmh WNW 8.1 mph13.0 kmh 29.27 in991.2 mb - 0.00 in0.0 mm 0.15 in3.8 mm
09:20 PM 40.4°F4.7°C 38.8°F3.8°C 94% 1.2 mph W1.9 kmh W -- 29.28 in991.5 mb - 0.00 in0.0 mm 0.15 in3.8 mm
09:30 PM 40.4°F4.7°C 38.8°F3.8°C 94% 2.3 mph NW3.7 kmh NW 2.3 mph3.7 kmh 29.28 in991.5 mb - 0.00 in0.0 mm 0.15 in3.8 mm
09:40 PM 40.4°F4.7°C 38.8°F3.8°C 94% Calm Calm -- 29.29 in991.9 mb - 0.00 in0.0 mm 0.15 in3.8 mm
09:50 PM 40.7°F4.8°C 39.1°F3.9°C 94% 2.3 mph W3.7 kmh W 6.9 mph11.1 kmh 29.29 in991.9 mb - 0.00 in0.0 mm 0.15 in3.8 mm
10:00 PM 40.9°F4.9°C 39.3°F4.1°C 94% 1.2 mph SW1.9 kmh SW 1.2 mph1.9 kmh 29.29 in991.9 mb - 0.00 in0.0 mm 0.15 in3.8 mm
10:10 PM 40.9°F4.9°C 39.0°F3.9°C 93% Calm Calm 3.5 mph5.6 kmh 29.30 in992.2 mb - 0.00 in0.0 mm 0.15 in3.8 mm
10:20 PM 40.9°F4.9°C 38.8°F3.8°C 92% 4.6 mph WSW7.4 kmh WSW 4.6 mph7.4 kmh 29.30 in992.2 mb - 0.00 in0.0 mm 0.15 in3.8 mm
10:30 PM 40.7°F4.8°C 38.6°F3.7°C 92% 1.2 mph WSW1.9 kmh WSW 5.8 mph9.3 kmh 29.30 in992.2 mb - 0.00 in0.0 mm 0.15 in3.8 mm
10:40 PM 40.4°F4.7°C 38.0°F3.3°C 91% 4.6 mph SW7.4 kmh SW 6.9 mph11.1 kmh 29.30 in992.2 mb - 0.00 in0.0 mm 0.15 in3.8 mm
10:50 PM 40.2°F4.6°C 37.8°F3.2°C 91% 3.5 mph SW5.6 kmh SW 9.2 mph14.8 kmh 29.31 in992.6 mb - 0.00 in0.0 mm 0.15 in3.8 mm
11:00 PM 40.2°F4.6°C 37.5°F3.1°C 90% 4.6 mph WSW7.4 kmh WSW 13.8 mph22.2 kmh 29.31 in992.6 mb - 0.00 in0.0 mm 0.15 in3.8 mm
11:10 PM 40.3°F4.6°C 37.6°F3.1°C 90% Calm Calm -- 29.32 in992.9 mb - 0.00 in0.0 mm 0.15 in3.8 mm
11:20 PM 40.2°F4.6°C 37.5°F3.1°C 90% 3.5 mph WSW5.6 kmh WSW 6.9 mph11.1 kmh 29.32 in992.9 mb - 0.00 in0.0 mm 0.15 in3.8 mm
11:30 PM 40.1°F4.5°C 37.4°F3.0°C 90% 1.2 mph WSW1.9 kmh WSW 6.9 mph11.1 kmh 29.32 in992.9 mb - 0.00 in0.0 mm 0.15 in3.8 mm
11:40 PM 40.0°F4.4°C 37.0°F2.8°C 89% 1.2 mph SW1.9 kmh SW 8.1 mph13.0 kmh 29.32 in992.9 mb - 0.00 in0.0 mm 0.15 in3.8 mm
11:50 PM 39.7°F4.3°C 36.7°F2.6°C 89% 3.5 mph SW5.6 kmh SW 8.1 mph13.0 kmh 29.32 in992.9 mb - 0.00 in0.0 mm 0.15 in3.8 mm